Time,TemperatureF,DewpointF,PressureIn,WindDirection,WindDirectionDegrees,WindSpeedMPH,WindSpeedGustMPH,Humidity,HourlyPrecipIn,Conditions,Clouds,dailyrainin,SoftwareType,DateUTC
2013-02-11 00:00:00,26.1,3.4,30.43,WSW,254,2.0,3.0,37,0.00,,,0.00,meteohub,2013-02-11 05:00:00,
2013-02-11 00:05:00,25.7,5.2,30.43,SW,233,0.0,3.0,41,0.00,,,0.00,meteohub,2013-02-11 05:05:00,
2013-02-11 00:10:00,25.9,3.7,30.43,SW,233,1.0,3.0,38,0.00,,,0.00,meteohub,2013-02-11 05:10:00,
2013-02-11 00:15:00,25.9,5.4,30.43,SW,233,0.0,2.0,41,0.00,,,0.00,meteohub,2013-02-11 05:15:00,
2013-02-11 00:20:00,25.9,3.2,30.43,East,90,0.0,3.0,37,0.00,,,0.00,meteohub,2013-02-11 05:20:00,
2013-02-11 00:25:00,26.2,4.6,30.42,East,101,1.0,3.0,39,0.00,,,0.00,meteohub,2013-02-11 05:25:00,
2013-02-11 00:31:00,26.2,3.6,30.41,East,96,0.0,4.0,37,0.00,,,0.00,meteohub,2013-02-11 05:31:00,
2013-02-11 00:36:00,26.4,3.0,30.40,ESE,115,0.0,4.0,36,0.00,,,0.00,meteohub,2013-02-11 05:36:00,
2013-02-11 00:41:00,26.4,3.0,30.40,ESE,114,2.0,3.0,36,0.00,,,0.00,meteohub,2013-02-11 05:41:00,
2013-02-11 00:46:00,27.0,3.0,30.40,East,97,5.0,5.0,35,0.00,,,0.00,meteohub,2013-02-11 05:46:00,
2013-02-11 00:51:00,27.5,2.1,30.40,East,93,0.0,7.0,33,0.00,,,0.00,meteohub,2013-02-11 05:51:00,
2013-02-11 00:56:00,27.9,3.2,30.40,East,92,3.0,7.0,34,0.00,,,0.00,meteohub,2013-02-11 05:56:00,
2013-02-11 01:01:00,27.9,3.7,30.40,East,82,2.0,7.0,35,0.00,,,0.00,meteohub,2013-02-11 06:01:00,
2013-02-11 01:06:00,27.9,5.0,30.38,East,97,1.0,5.0,37,0.00,,,0.00,meteohub,2013-02-11 06:06:00,
2013-02-11 01:11:00,27.7,4.3,30.38,East,96,2.0,6.0,36,0.00,,,0.00,meteohub,2013-02-11 06:11:00,
2013-02-11 01:16:00,27.3,5.5,30.38,East,95,1.0,6.0,39,0.00,,,0.00,meteohub,2013-02-11 06:16:00,
2013-02-11 01:21:00,27.1,4.3,30.38,East,95,0.0,6.0,37,0.00,,,0.00,meteohub,2013-02-11 06:21:00,
2013-02-11 01:26:00,27.7,5.4,30.38,East,82,1.0,4.0,38,0.00,,,0.00,meteohub,2013-02-11 06:26:00,
2013-02-11 01:31:00,27.7,5.9,30.37,East,82,1.0,5.0,39,0.00,,,0.00,meteohub,2013-02-11 06:31:00,
2013-02-11 01:36:00,27.3,6.8,30.36,NE,45,1.0,5.0,41,0.00,,,0.00,meteohub,2013-02-11 06:36:00,
2013-02-11 01:41:00,27.3,5.5,30.37,East,94,1.0,6.0,39,0.00,,,0.00,meteohub,2013-02-11 06:41:00,
2013-02-11 01:46:00,28.0,5.2,30.37,East,96,3.0,6.0,37,0.00,,,0.00,meteohub,2013-02-11 06:46:00,
2013-02-11 01:51:00,28.0,5.7,30.36,East,97,2.0,6.0,38,0.00,,,0.00,meteohub,2013-02-11 06:51:00,
2013-02-11 01:56:00,28.2,4.1,30.36,ESE,113,8.0,8.0,35,0.00,,,0.00,meteohub,2013-02-11 06:56:00,
2013-02-11 02:01:00,29.1,4.3,30.36,East,89,2.0,12.0,34,0.00,,,0.00,meteohub,2013-02-11 07:01:00,
2013-02-11 02:06:00,28.9,4.1,30.36,ESE,109,7.0,12.0,34,0.00,,,0.00,meteohub,2013-02-11 07:06:00,
2013-02-11 02:11:00,29.1,4.3,30.35,East,90,2.0,12.0,34,0.00,,,0.00,meteohub,2013-02-11 07:11:00,
2013-02-11 02:16:00,29.3,3.7,30.34,East,82,2.0,8.0,33,0.00,,,0.00,meteohub,2013-02-11 07:16:00,
2013-02-11 02:21:00,29.7,3.4,30.34,ESE,103,3.0,9.0,32,0.00,,,0.00,meteohub,2013-02-11 07:21:00,
2013-02-11 02:26:00,30.0,1.6,30.34,ENE,69,2.0,9.0,29,0.00,,,0.00,meteohub,2013-02-11 07:26:00,
2013-02-11 02:31:00,30.0,4.5,30.35,SE,135,1.0,9.0,33,0.00,,,0.00,meteohub,2013-02-11 07:31:00,
2013-02-11 02:36:00,29.7,7.2,30.35,East,99,0.0,9.0,38,0.00,,,0.00,meteohub,2013-02-11 07:36:00,
2013-02-11 02:41:00,29.7,4.1,30.34,East,98,3.0,5.0,33,0.00,,,0.00,meteohub,2013-02-11 07:41:00,
2013-02-11 02:46:00,29.5,7.0,30.33,North,11,0.0,5.0,38,0.00,,,0.00,meteohub,2013-02-11 07:46:00,
2013-02-11 02:51:00,29.8,2.1,30.32,ESE,104,0.0,5.0,30,0.00,,,0.00,meteohub,2013-02-11 07:51:00,
2013-02-11 02:56:00,31.1,1.8,30.32,NE,52,1.0,9.0,28,0.00,,,0.00,meteohub,2013-02-11 07:56:00,
2013-02-11 03:01:00,33.4,0.5,30.32,South,173,5.0,9.0,24,0.00,,,0.00,meteohub,2013-02-11 08:01:00,
2013-02-11 03:06:00,34.7,1.6,30.32,SSE,152,6.0,11.0,24,0.00,,,0.00,meteohub,2013-02-11 08:06:00,
2013-02-11 03:11:00,34.5,1.4,30.32,SE,136,8.0,11.0,24,0.00,,,0.00,meteohub,2013-02-11 08:11:00,
2013-02-11 03:16:00,34.9,0.9,30.32,NW,307,2.0,16.0,23,0.00,,,0.00,meteohub,2013-02-11 08:16:00,
2013-02-11 03:21:00,34.5,3.2,30.31,ESE,107,2.0,16.0,26,0.00,,,0.00,meteohub,2013-02-11 08:21:00,
2013-02-11 03:26:00,34.3,3.0,30.31,SSE,155,1.0,16.0,26,0.00,,,0.00,meteohub,2013-02-11 08:26:00,
2013-02-11 03:31:00,34.9,1.8,30.30,SSE,160,4.0,10.0,24,0.00,,,0.00,meteohub,2013-02-11 08:31:00,
2013-02-11 03:36:00,34.0,2.7,30.30,ESE,122,1.0,10.0,26,0.00,,,0.00,meteohub,2013-02-11 08:36:00,
2013-02-11 03:42:00,33.8,4.8,30.29,ESE,122,0.0,6.0,29,0.00,,,0.00,meteohub,2013-02-11 08:42:00,
2013-02-11 03:46:00,34.0,1.8,30.29,NW,320,4.0,7.0,25,0.00,,,0.00,meteohub,2013-02-11 08:46:00,
2013-02-11 03:52:00,34.7,2.5,30.28,ESE,115,4.0,12.0,25,0.00,,,0.00,meteohub,2013-02-11 08:52:00,
2013-02-11 03:57:00,34.3,3.0,30.28,SSW,200,2.0,12.0,26,0.00,,,0.00,meteohub,2013-02-11 08:57:00,
2013-02-11 04:02:00,33.6,2.3,30.28,SE,130,4.0,12.0,26,0.00,,,0.00,meteohub,2013-02-11 09:02:00,
2013-02-11 04:07:00,34.2,0.1,30.27,ESE,103,5.0,10.0,23,0.00,,,0.00,meteohub,2013-02-11 09:07:00,
2013-02-11 04:12:00,34.0,1.0,30.27,ESE,119,4.0,13.0,24,0.00,,,0.00,meteohub,2013-02-11 09:12:00,
2013-02-11 04:17:00,34.2,1.9,30.27,SSE,167,5.0,13.0,25,0.00,,,0.00,meteohub,2013-02-11 09:17:00,
2013-02-11 04:22:00,34.2,1.9,30.26,South,169,4.0,13.0,25,0.00,,,0.00,meteohub,2013-02-11 09:22:00,
2013-02-11 04:27:00,34.5,1.4,30.26,SSW,193,5.0,12.0,24,0.00,,,0.00,meteohub,2013-02-11 09:27:00,
2013-02-11 04:32:00,35.4,2.1,30.25,South,177,1.0,10.0,24,0.00,,,0.00,meteohub,2013-02-11 09:32:00,
2013-02-11 04:37:00,35.2,7.7,30.26,SSW,207,4.0,10.0,31,0.00,,,0.00,meteohub,2013-02-11 09:37:00,
2013-02-11 04:42:00,34.7,5.0,30.26,NNW,331,0.0,10.0,28,0.00,,,0.00,meteohub,2013-02-11 09:42:00,
2013-02-11 04:47:00,34.7,4.1,30.25,South,188,1.0,7.0,27,0.00,,,0.00,meteohub,2013-02-11 09:47:00,
2013-02-11 04:52:00,35.1,5.2,30.25,SW,236,2.0,10.0,28,0.00,,,0.00,meteohub,2013-02-11 09:52:00,
2013-02-11 04:57:00,35.1,3.6,30.26,South,175,0.0,10.0,26,0.00,,,0.00,meteohub,2013-02-11 09:57:00,
2013-02-11 05:02:00,34.9,5.0,30.25,SSW,197,2.0,10.0,28,0.00,,,0.00,meteohub,2013-02-11 10:02:00,
2013-02-11 05:07:00,35.2,7.0,30.25,SW,217,3.0,10.0,30,0.00,,,0.00,meteohub,2013-02-11 10:07:00,
2013-02-11 05:12:00,35.6,7.2,30.25,SSW,200,6.0,9.0,30,0.00,,,0.00,meteohub,2013-02-11 10:12:00,
2013-02-11 05:17:00,36.1,8.4,30.25,WSW,244,2.0,9.0,31,0.00,,,0.00,meteohub,2013-02-11 10:17:00,
2013-02-11 05:22:00,35.6,8.6,30.25,SSW,203,4.0,10.0,32,0.00,,,0.00,meteohub,2013-02-11 10:22:00,
2013-02-11 05:27:00,35.6,9.3,30.25,SW,215,5.0,11.0,33,0.00,,,0.00,meteohub,2013-02-11 10:27:00,
2013-02-11 05:32:00,35.4,8.4,30.25,SSE,149,5.0,11.0,32,0.00,,,0.00,meteohub,2013-02-11 10:32:00,
2013-02-11 05:37:00,34.7,9.1,30.25,SSE,148,5.0,11.0,34,0.00,,,0.00,meteohub,2013-02-11 10:37:00,
2013-02-11 05:42:00,34.0,9.9,30.25,SE,136,1.0,8.0,36,0.00,,,0.00,meteohub,2013-02-11 10:42:00,
2013-02-11 05:47:00,33.6,9.0,30.24,SSE,161,4.0,8.0,35,0.00,,,0.00,meteohub,2013-02-11 10:47:00,
2013-02-11 05:52:00,33.6,10.0,30.23,South,186,2.0,8.0,37,0.00,,,0.00,meteohub,2013-02-11 10:52:00,
2013-02-11 05:57:00,33.6,11.3,30.23,SSE,157,5.0,10.0,39,0.00,,,0.00,meteohub,2013-02-11 10:57:00,
2013-02-11 06:02:00,34.2,11.1,30.23,SSE,162,5.0,10.0,38,0.00,,,0.00,meteohub,2013-02-11 11:02:00,
2013-02-11 06:07:00,34.2,13.5,30.22,ESE,116,5.0,10.0,42,0.00,,,0.00,meteohub,2013-02-11 11:07:00,
2013-02-11 06:12:00,33.8,14.7,30.22,SE,140,8.0,8.0,45,0.00,,,0.00,meteohub,2013-02-11 11:12:00,
2013-02-11 06:17:00,34.0,17.2,30.21,South,186,2.0,9.0,50,0.00,,,0.00,meteohub,2013-02-11 11:17:00,
2013-02-11 06:22:00,34.2,17.1,30.20,South,171,6.0,10.0,49,0.00,,,0.00,meteohub,2013-02-11 11:22:00,
2013-02-11 06:27:00,33.6,15.1,30.20,SSE,158,6.0,10.0,46,0.00,,,0.00,meteohub,2013-02-11 11:27:00,
2013-02-11 06:32:00,33.3,14.7,30.20,South,177,3.0,9.0,46,0.00,,,0.00,meteohub,2013-02-11 11:32:00,
2013-02-11 06:37:00,33.3,15.3,30.20,SSE,148,5.0,16.0,47,0.00,,,0.00,meteohub,2013-02-11 11:37:00,
2013-02-11 06:42:00,33.1,14.0,30.19,SSE,150,6.0,16.0,45,0.00,,,0.00,meteohub,2013-02-11 11:42:00,
2013-02-11 06:47:00,33.1,15.4,30.19,SSE,162,5.0,16.0,48,0.00,,,0.00,meteohub,2013-02-11 11:47:00,
2013-02-11 06:52:00,33.1,14.5,30.19,South,181,5.0,11.0,46,0.00,,,0.00,meteohub,2013-02-11 11:52:00,
2013-02-11 06:57:00,32.9,15.8,30.19,South,191,2.0,13.0,49,0.00,,,0.00,meteohub,2013-02-11 11:57:00,
2013-02-11 07:02:00,32.7,15.3,30.19,South,191,2.0,13.0,48,0.00,,,0.00,meteohub,2013-02-11 12:02:00,
2013-02-11 07:07:00,32.7,14.7,30.18,South,186,4.0,13.0,47,0.00,,,0.00,meteohub,2013-02-11 12:07:00,
2013-02-11 07:12:00,32.7,15.6,30.18,SW,219,9.0,11.0,49,0.00,,,0.00,meteohub,2013-02-11 12:12:00,
2013-02-11 07:17:00,32.5,15.1,30.17,South,171,5.0,11.0,48,0.00,,,0.00,meteohub,2013-02-11 12:17:00,
2013-02-11 07:22:00,32.5,16.0,30.16,South,186,9.0,14.0,50,0.00,,,0.00,meteohub,2013-02-11 12:22:00,
2013-02-11 07:27:00,32.4,15.3,30.16,SSE,158,10.0,14.0,49,0.00,,,0.00,meteohub,2013-02-11 12:27:00,
2013-02-11 07:32:00,31.8,15.3,30.16,SSW,201,6.0,15.0,50,0.00,,,0.00,meteohub,2013-02-11 12:32:00,
2013-02-11 07:37:00,31.8,14.4,30.16,South,171,5.0,15.0,48,0.00,,,0.00,meteohub,2013-02-11 12:37:00,
2013-02-11 07:42:00,31.8,14.4,30.16,SSW,211,7.0,20.0,48,0.00,,,0.00,meteohub,2013-02-11 12:42:00,
2013-02-11 07:47:00,31.6,16.0,30.16,South,186,2.0,20.0,52,0.00,,,0.00,meteohub,2013-02-11 12:47:00,
2013-02-11 07:52:00,31.6,16.9,30.16,SSE,153,8.0,20.0,54,0.00,,,0.00,meteohub,2013-02-11 12:52:00,
2013-02-11 07:57:00,31.5,18.9,30.16,SSW,207,2.0,11.0,59,0.00,,,0.00,meteohub,2013-02-11 12:57:00,
2013-02-11 08:02:00,31.3,21.9,30.15,SSW,197,4.0,11.0,68,0.00,,,0.00,meteohub,2013-02-11 13:02:00,
2013-02-11 08:07:00,30.9,20.8,30.15,SSW,211,4.0,11.0,66,0.00,,,0.00,meteohub,2013-02-11 13:07:00,
2013-02-11 08:12:00,30.4,21.7,30.14,SE,124,3.0,10.0,70,0.00,,,0.00,meteohub,2013-02-11 13:12:00,
2013-02-11 08:17:00,29.5,22.5,30.14,SE,144,7.0,10.0,75,0.00,,,0.00,meteohub,2013-02-11 13:17:00,
2013-02-11 08:21:00,28.6,23.7,30.14,SE,136,9.0,15.0,82,0.00,,,0.00,meteohub,2013-02-11 13:21:00,
2013-02-11 08:27:00,28.2,24.3,30.13,South,180,7.0,15.0,85,0.00,,,0.00,meteohub,2013-02-11 13:27:00,
2013-02-11 08:32:00,28.0,24.6,30.13,SSW,199,7.0,15.0,87,0.00,,,0.00,meteohub,2013-02-11 13:32:00,
2013-02-11 08:37:00,28.0,25.0,30.13,East,92,6.0,13.0,88,0.00,,,0.00,meteohub,2013-02-11 13:37:00,
2013-02-11 08:42:00,27.9,25.0,30.13,ENE,61,7.0,12.0,89,0.00,,,0.00,meteohub,2013-02-11 13:42:00,
2013-02-11 08:47:00,28.0,25.7,30.13,ESE,110,2.0,12.0,91,0.00,,,0.00,meteohub,2013-02-11 13:47:00,
2013-02-11 08:52:00,28.2,25.9,30.13,NW,315,8.0,12.0,91,0.00,,,0.00,meteohub,2013-02-11 13:52:00,
2013-02-11 08:57:00,28.9,27.1,30.12,ENE,66,4.0,10.0,93,0.00,,,0.00,meteohub,2013-02-11 13:57:00,
2013-02-11 09:02:00,29.5,27.7,30.12,ENE,71,7.0,10.0,93,0.00,,,0.00,meteohub,2013-02-11 14:02:00,
2013-02-11 09:07:00,29.5,27.7,30.12,SSE,148,6.0,10.0,93,0.00,,,0.00,meteohub,2013-02-11 14:07:00,
2013-02-11 09:12:00,29.1,27.3,30.11,East,80,1.0,10.0,93,0.00,,,0.00,meteohub,2013-02-11 14:12:00,
2013-02-11 09:17:00,28.8,27.0,30.11,South,169,1.0,10.0,93,0.00,,,0.00,meteohub,2013-02-11 14:17:00,
2013-02-11 09:22:00,28.8,27.0,30.10,SE,132,4.0,9.0,93,0.00,,,0.00,meteohub,2013-02-11 14:22:00,
2013-02-11 09:27:00,28.6,27.1,30.09,SE,128,3.0,9.0,94,0.00,,,0.00,meteohub,2013-02-11 14:27:00,
2013-02-11 09:32:00,28.8,27.3,30.09,SE,138,4.0,9.0,94,0.00,,,0.00,meteohub,2013-02-11 14:32:00,
2013-02-11 09:37:00,28.8,27.3,30.10,NW,319,0.0,9.0,94,0.00,,,0.00,meteohub,2013-02-11 14:37:00,
2013-02-11 09:42:00,28.8,27.3,30.08,SSE,159,3.0,10.0,94,0.00,,,0.00,meteohub,2013-02-11 14:42:00,
2013-02-11 09:47:00,28.9,27.5,30.08,ESE,122,5.0,10.0,94,0.00,,,0.00,meteohub,2013-02-11 14:47:00,
2013-02-11 09:52:00,28.9,27.5,30.08,SSE,168,2.0,10.0,94,0.00,,,0.00,meteohub,2013-02-11 14:52:00,
2013-02-11 09:57:00,28.8,27.3,30.07,ESE,121,4.0,11.0,94,0.00,,,0.00,meteohub,2013-02-11 14:57:00,
2013-02-11 10:02:00,28.9,27.7,30.07,SE,134,3.0,11.0,95,0.00,,,0.00,meteohub,2013-02-11 15:02:00,
2013-02-11 10:07:00,29.5,28.0,30.06,ESE,118,4.0,12.0,94,0.00,,,0.00,meteohub,2013-02-11 15:07:00,
2013-02-11 10:12:00,29.8,28.4,30.05,SE,129,2.0,12.0,94,0.00,,,0.00,meteohub,2013-02-11 15:12:00,
2013-02-11 10:17:00,29.8,28.4,30.05,South,178,4.0,12.0,94,0.00,,,0.00,meteohub,2013-02-11 15:17:00,
2013-02-11 10:22:00,29.8,28.4,30.04,SSW,202,6.0,10.0,94,0.00,,,0.00,meteohub,2013-02-11 15:22:00,
2013-02-11 10:27:00,30.0,28.2,30.05,SE,136,11.0,11.0,93,0.00,,,0.00,meteohub,2013-02-11 15:27:00,
2013-02-11 10:32:00,30.7,29.5,30.04,East,84,6.0,11.0,95,0.00,,,0.00,meteohub,2013-02-11 15:32:00,
2013-02-11 10:37:00,31.6,29.8,30.04,SE,129,8.0,11.0,93,0.00,,,0.00,meteohub,2013-02-11 15:37:00,
2013-02-11 10:42:00,31.6,29.8,30.04,SSW,197,3.0,11.0,93,0.00,,,0.00,meteohub,2013-02-11 15:42:00,
2013-02-11 10:47:00,31.5,29.1,30.03,East,96,0.0,11.0,91,0.00,,,0.00,meteohub,2013-02-11 15:47:00,
2013-02-11 10:52:00,32.4,30.7,30.03,SSE,159,5.0,11.0,94,0.00,,,0.00,meteohub,2013-02-11 15:52:00,
2013-02-11 10:57:00,33.3,31.6,30.02,SSE,152,6.0,9.0,94,0.00,,,0.00,meteohub,2013-02-11 15:57:00,
2013-02-11 11:02:00,34.3,32.5,30.02,SSW,200,6.0,14.0,93,0.00,,,0.00,meteohub,2013-02-11 16:02:00,
2013-02-11 11:07:00,37.0,35.2,30.01,SW,218,14.0,14.0,93,0.00,,,0.00,meteohub,2013-02-11 16:07:00,
2013-02-11 11:12:00,37.9,35.2,30.00,South,188,6.0,20.0,90,0.00,,,0.00,meteohub,2013-02-11 16:12:00,
2013-02-11 11:17:00,36.3,32.5,30.00,SW,219,10.0,20.0,86,0.00,,,0.00,meteohub,2013-02-11 16:17:00,
2013-02-11 11:22:00,35.8,33.4,29.99,SW,230,14.0,20.0,91,0.00,,,0.00,meteohub,2013-02-11 16:22:00,
2013-02-11 11:27:00,38.1,36.0,29.99,SW,233,0.0,17.0,92,0.00,,,0.00,meteohub,2013-02-11 16:27:00,
2013-02-11 11:32:00,38.7,36.0,29.98,SSW,202,13.0,17.0,90,0.00,,,0.00,meteohub,2013-02-11 16:32:00,
2013-02-11 11:37:00,39.0,36.3,29.97,SW,215,8.0,20.0,90,0.00,,,0.00,meteohub,2013-02-11 16:37:00,
2013-02-11 11:42:00,38.1,34.3,29.97,West,259,3.0,20.0,86,0.00,,,0.00,meteohub,2013-02-11 16:42:00,
2013-02-11 11:47:00,37.6,35.2,29.97,SW,229,10.0,20.0,91,0.00,,,0.00,meteohub,2013-02-11 16:47:00,
2013-02-11 11:52:00,37.6,35.8,29.97,West,274,2.0,21.0,93,0.00,,,0.00,meteohub,2013-02-11 16:52:00,
2013-02-11 11:57:00,38.1,35.8,29.97,SW,223,5.0,21.0,91,0.00,,,0.00,meteohub,2013-02-11 16:57:00,
2013-02-11 12:02:00,39.0,36.1,29.96,NNW,336,5.0,21.0,89,0.00,,,0.00,meteohub,2013-02-11 17:02:00,
2013-02-11 12:07:00,39.7,37.0,29.96,WSW,240,6.0,15.0,90,0.00,,,0.00,meteohub,2013-02-11 17:07:00,
2013-02-11 12:12:00,40.1,37.0,29.95,SW,223,10.0,17.0,89,0.00,,,0.00,meteohub,2013-02-11 17:12:00,
2013-02-11 12:17:00,40.1,36.9,29.95,WSW,240,5.0,17.0,88,0.00,,,0.00,meteohub,2013-02-11 17:17:00,
2013-02-11 12:22:00,40.3,37.2,29.94,SW,223,6.0,16.0,89,0.01,,,0.01,meteohub,2013-02-11 17:22:00,
2013-02-11 12:27:00,40.3,37.2,29.94,SW,232,3.0,16.0,89,0.01,,,0.01,meteohub,2013-02-11 17:27:00,
2013-02-11 12:32:00,40.3,37.2,29.94,SW,231,2.0,16.0,89,0.01,,,0.01,meteohub,2013-02-11 17:32:00,
2013-02-11 12:37:00,40.3,37.2,29.94,SSW,200,5.0,16.0,89,0.02,,,0.02,meteohub,2013-02-11 17:37:00,
2013-02-11 12:42:00,40.3,37.2,29.93,SW,222,5.0,16.0,89,0.02,,,0.02,meteohub,2013-02-11 17:42:00,
2013-02-11 12:47:00,40.3,37.2,29.92,SSW,200,7.0,14.0,89,0.02,,,0.02,meteohub,2013-02-11 17:47:00,
2013-02-11 12:52:00,39.9,37.2,29.92,SW,221,5.0,14.0,90,0.02,,,0.02,meteohub,2013-02-11 17:52:00,
2013-02-11 12:57:00,39.9,37.6,29.91,WSW,257,2.0,14.0,91,0.03,,,0.03,meteohub,2013-02-11 17:57:00,
2013-02-11 13:02:00,39.9,37.6,29.90,WNW,291,2.0,10.0,91,0.03,,,0.03,meteohub,2013-02-11 18:02:00,
2013-02-11 13:08:00,40.1,37.8,29.90,SW,236,4.0,9.0,91,0.03,,,0.03,meteohub,2013-02-11 18:08:00,
2013-02-11 13:13:00,40.1,37.8,29.90,SW,221,5.0,12.0,91,0.04,,,0.04,meteohub,2013-02-11 18:13:00,
2013-02-11 13:18:00,40.5,38.1,29.89,SW,217,3.0,12.0,91,0.03,,,0.04,meteohub,2013-02-11 18:18:00,
2013-02-11 13:23:00,40.6,37.9,29.89,NW,304,0.0,10.0,90,0.04,,,0.05,meteohub,2013-02-11 18:23:00,
2013-02-11 13:28:00,41.0,38.3,29.89,WSW,254,1.0,10.0,90,0.04,,,0.05,meteohub,2013-02-11 18:28:00,
2013-02-11 13:33:00,41.0,37.9,29.90,SW,223,1.0,10.0,89,0.04,,,0.06,meteohub,2013-02-11 18:33:00,
2013-02-11 13:38:00,41.2,38.1,29.89,WSW,241,4.0,8.0,89,0.04,,,0.06,meteohub,2013-02-11 18:38:00,
2013-02-11 13:43:00,41.2,38.1,29.89,WNW,291,0.0,11.0,89,0.04,,,0.06,meteohub,2013-02-11 18:43:00,
2013-02-11 13:48:00,41.4,38.3,29.89,SW,219,3.0,11.0,89,0.04,,,0.06,meteohub,2013-02-11 18:48:00,
2013-02-11 13:53:00,41.2,37.9,29.88,SW,226,7.0,11.0,88,0.04,,,0.06,meteohub,2013-02-11 18:53:00,
2013-02-11 13:58:00,41.2,37.9,29.88,SSW,213,2.0,10.0,88,0.04,,,0.07,meteohub,2013-02-11 18:58:00,
2013-02-11 14:03:00,41.4,38.1,29.88,South,188,3.0,7.0,88,0.04,,,0.07,meteohub,2013-02-11 19:03:00,
2013-02-11 14:08:00,41.7,38.5,29.87,WSW,245,2.0,9.0,88,0.03,,,0.07,meteohub,2013-02-11 19:08:00,
2013-02-11 14:13:00,41.7,38.5,29.86,South,178,2.0,9.0,88,0.03,,,0.07,meteohub,2013-02-11 19:13:00,
2013-02-11 14:18:00,41.5,37.6,29.85,East,100,5.0,9.0,86,0.02,,,0.07,meteohub,2013-02-11 19:18:00,
2013-02-11 14:23:00,40.6,37.0,29.84,East,82,3.0,8.0,87,0.02,,,0.07,meteohub,2013-02-11 19:23:00,
2013-02-11 14:28:00,40.1,37.0,29.84,North,5,0.0,8.0,89,0.03,,,0.08,meteohub,2013-02-11 19:28:00,
2013-02-11 14:33:00,39.7,36.7,29.84,ENE,74,2.0,8.0,89,0.02,,,0.08,meteohub,2013-02-11 19:33:00,
2013-02-11 14:38:00,39.6,36.9,29.83,ENE,74,3.0,6.0,90,0.02,,,0.08,meteohub,2013-02-11 19:38:00,
2013-02-11 14:43:00,40.1,37.4,29.83,NE,51,2.0,3.0,90,0.02,,,0.08,meteohub,2013-02-11 19:43:00,
2013-02-11 14:48:00,41.4,38.3,29.83,NE,46,1.0,5.0,89,0.02,,,0.08,meteohub,2013-02-11 19:48:00,
2013-02-11 14:53:00,42.3,38.7,29.83,East,100,2.0,5.0,87,0.02,,,0.08,meteohub,2013-02-11 19:53:00,
2013-02-11 14:58:00,42.8,38.8,29.83,ESE,115,4.0,5.0,86,0.01,,,0.08,meteohub,2013-02-11 19:58:00,
2013-02-11 15:03:00,43.2,39.0,29.83,NNE,28,1.0,5.0,85,0.02,,,0.09,meteohub,2013-02-11 20:03:00,
2013-02-11 15:08:00,43.5,39.0,29.82,South,176,2.0,5.0,84,0.02,,,0.09,meteohub,2013-02-11 20:08:00,
2013-02-11 15:13:00,44.1,39.2,29.82,SSE,147,2.0,5.0,83,0.02,,,0.09,meteohub,2013-02-11 20:13:00,
2013-02-11 15:18:00,44.2,39.4,29.81,East,92,2.0,5.0,83,0.02,,,0.09,meteohub,2013-02-11 20:18:00,
2013-02-11 15:23:00,44.1,38.8,29.81,East,101,2.0,5.0,82,0.02,,,0.09,meteohub,2013-02-11 20:23:00,
2013-02-11 15:28:00,44.1,39.2,29.81,East,101,3.0,6.0,83,0.01,,,0.09,meteohub,2013-02-11 20:28:00,
2013-02-11 15:33:00,43.7,38.8,29.81,East,101,0.0,6.0,83,0.01,,,0.09,meteohub,2013-02-11 20:33:00,
2013-02-11 15:38:00,43.2,38.7,29.81,East,92,1.0,5.0,84,0.01,,,0.09,meteohub,2013-02-11 20:38:00,
2013-02-11 15:43:00,43.3,39.2,29.81,WSW,255,0.0,5.0,85,0.01,,,0.09,meteohub,2013-02-11 20:43:00,
2013-02-11 15:48:00,43.7,39.2,29.81,NNW,346,2.0,5.0,84,0.01,,,0.09,meteohub,2013-02-11 20:48:00,
2013-02-11 15:53:00,44.2,39.7,29.81,West,269,2.0,6.0,84,0.01,,,0.09,meteohub,2013-02-11 20:53:00,
2013-02-11 15:58:00,44.6,39.7,29.81,NW,316,1.0,6.0,83,0.01,,,0.09,meteohub,2013-02-11 20:58:00,
2013-02-11 16:03:00,44.8,39.9,29.81,West,280,1.0,7.0,83,0.00,,,0.09,meteohub,2013-02-11 21:03:00,
2013-02-11 16:08:00,44.8,39.9,29.81,WNW,288,5.0,7.0,83,0.00,,,0.09,meteohub,2013-02-11 21:08:00,
2013-02-11 16:13:00,44.8,39.9,29.81,WSW,246,6.0,6.0,83,0.00,,,0.09,meteohub,2013-02-11 21:13:00,
2013-02-11 16:18:00,44.6,39.7,29.81,West,273,4.0,7.0,83,0.01,,,0.10,meteohub,2013-02-11 21:18:00,
2013-02-11 16:23:00,44.4,39.6,29.81,West,277,5.0,9.0,83,0.01,,,0.10,meteohub,2013-02-11 21:23:00,
2013-02-11 16:28:00,44.4,39.6,29.80,West,279,9.0,9.0,83,0.01,,,0.10,meteohub,2013-02-11 21:28:00,
2013-02-11 16:33:00,44.2,39.4,29.80,WNW,292,0.0,9.0,83,0.01,,,0.10,meteohub,2013-02-11 21:33:00,
2013-02-11 16:38:00,43.9,39.4,29.79,NW,310,0.0,9.0,84,0.01,,,0.10,meteohub,2013-02-11 21:38:00,
2013-02-11 16:43:00,43.5,39.0,29.79,NW,306,2.0,9.0,84,0.01,,,0.10,meteohub,2013-02-11 21:43:00,
2013-02-11 16:48:00,43.0,38.8,29.78,West,269,0.0,7.0,85,0.01,,,0.10,meteohub,2013-02-11 21:48:00,
2013-02-11 16:53:00,42.6,38.5,29.78,West,269,1.0,4.0,85,0.01,,,0.10,meteohub,2013-02-11 21:53:00,
2013-02-11 16:58:00,42.4,38.5,29.78,NW,319,4.0,4.0,86,0.01,,,0.10,meteohub,2013-02-11 21:58:00,
2013-02-11 17:04:00,42.4,38.5,29.78,West,265,0.0,7.0,86,0.01,,,0.10,meteohub,2013-02-11 22:04:00,
2013-02-11 17:09:00,42.4,38.5,29.78,West,271,1.0,7.0,86,0.01,,,0.10,meteohub,2013-02-11 22:09:00,
2013-02-11 17:14:00,42.3,38.3,29.77,WNW,292,1.0,7.0,86,0.01,,,0.10,meteohub,2013-02-11 22:14:00,
2013-02-11 17:19:00,42.1,38.5,29.77,NW,304,0.0,5.0,87,0.00,,,0.10,meteohub,2013-02-11 22:19:00,
2013-02-11 17:24:00,42.1,38.5,29.77,West,269,0.0,4.0,87,0.00,,,0.10,meteohub,2013-02-11 22:24:00,
2013-02-11 17:29:00,42.1,38.5,29.77,West,261,1.0,4.0,87,0.00,,,0.10,meteohub,2013-02-11 22:29:00,
2013-02-11 17:34:00,42.1,38.5,29.76,ENE,59,0.0,7.0,87,0.00,,,0.10,meteohub,2013-02-11 22:34:00,
2013-02-11 17:39:00,41.7,38.1,29.76,ENE,59,0.0,7.0,87,0.00,,,0.10,meteohub,2013-02-11 22:39:00,
2013-02-11 17:44:00,41.9,38.7,29.76,SW,227,3.0,7.0,88,0.00,,,0.10,meteohub,2013-02-11 22:44:00,
2013-02-11 17:49:00,42.1,38.8,29.75,SW,226,1.0,7.0,88,0.00,,,0.10,meteohub,2013-02-11 22:49:00,
2013-02-11 17:54:00,42.3,38.7,29.75,West,267,8.0,8.0,87,0.00,,,0.10,meteohub,2013-02-11 22:54:00,
2013-02-11 17:59:00,42.6,39.0,29.76,North,5,0.0,7.0,87,0.00,,,0.10,meteohub,2013-02-11 22:59:00,
2013-02-11 18:04:00,42.6,38.7,29.76,NNW,345,0.0,8.0,86,0.00,,,0.10,meteohub,2013-02-11 23:04:00,
2013-02-11 18:09:00,42.4,38.8,29.75,North,350,1.0,8.0,87,0.00,,,0.10,meteohub,2013-02-11 23:09:00,
2013-02-11 18:14:00,42.1,38.8,29.76,NW,312,1.0,6.0,88,0.00,,,0.10,meteohub,2013-02-11 23:14:00,
2013-02-11 18:19:00,42.1,38.8,29.75,NW,317,0.0,5.0,88,0.00,,,0.10,meteohub,2013-02-11 23:19:00,
2013-02-11 18:24:00,41.9,38.7,29.75,NE,42,1.0,6.0,88,0.00,,,0.10,meteohub,2013-02-11 23:24:00,
2013-02-11 18:29:00,41.7,38.5,29.75,North,5,0.0,6.0,88,0.00,,,0.10,meteohub,2013-02-11 23:29:00,
2013-02-11 18:34:00,41.4,38.1,29.75,North,5,0.0,4.0,88,0.00,,,0.10,meteohub,2013-02-11 23:34:00,
2013-02-11 18:39:00,40.8,37.6,29.75,North,5,1.0,3.0,88,0.00,,,0.10,meteohub,2013-02-11 23:39:00,
2013-02-11 18:44:00,40.3,37.0,29.75,North,5,1.0,3.0,88,0.00,,,0.10,meteohub,2013-02-11 23:44:00,
2013-02-11 18:49:00,39.7,37.0,29.75,North,5,0.0,2.0,90,0.00,,,0.10,meteohub,2013-02-11 23:49:00,
2013-02-11 18:54:00,39.6,37.2,29.75,North,0,0.0,2.0,91,0.00,,,0.10,meteohub,2013-02-11 23:54:00,
2013-02-11 18:59:00,39.4,37.0,29.74,North,0,0.0,3.0,91,0.00,,,0.10,meteohub,2013-02-11 23:59:00,
2013-02-11 19:04:00,39.0,36.7,29.74,North,0,0.0,3.0,91,0.00,,,0.10,meteohub,2013-02-12 00:04:00,
2013-02-11 19:09:00,39.0,37.2,29.75,NNE,32,0.0,2.0,93,0.00,,,0.00,meteohub,2013-02-12 00:09:00,
2013-02-11 19:14:00,39.2,37.4,29.75,NW,304,4.0,4.0,93,0.00,,,0.00,meteohub,2013-02-12 00:14:00,
2013-02-11 19:19:00,39.4,37.2,29.75,NW,307,0.0,5.0,92,0.00,,,0.00,meteohub,2013-02-12 00:19:00,
2013-02-11 19:24:00,39.0,37.2,29.75,NNE,27,2.0,7.0,93,0.00,,,0.00,meteohub,2013-02-12 00:24:00,
2013-02-11 19:29:00,38.8,37.0,29.75,NNW,329,0.0,7.0,93,0.00,,,0.00,meteohub,2013-02-12 00:29:00,
2013-02-11 19:34:00,38.7,36.9,29.74,NNW,329,1.0,4.0,93,0.00,,,0.00,meteohub,2013-02-12 00:34:00,
2013-02-11 19:39:00,38.5,36.7,29.75,North,0,5.0,5.0,93,0.00,,,0.00,meteohub,2013-02-12 00:39:00,
2013-02-11 19:44:00,38.1,36.5,29.75,WNW,292,1.0,6.0,94,0.00,,,0.00,meteohub,2013-02-12 00:44:00,
2013-02-11 19:50:00,37.9,36.3,29.75,WSW,255,2.0,6.0,94,0.00,,,0.00,meteohub,2013-02-12 00:50:00,
2013-02-11 19:54:00,37.8,36.1,29.75,WSW,250,3.0,6.0,94,0.00,,,0.00,meteohub,2013-02-12 00:54:00,
2013-02-11 20:00:00,37.8,36.5,29.75,West,281,5.0,6.0,95,0.00,,,0.00,meteohub,2013-02-12 01:00:00,
2013-02-11 20:05:00,38.5,37.4,29.75,West,274,2.0,5.0,96,0.00,,,0.00,meteohub,2013-02-12 01:05:00,
2013-02-11 20:10:00,38.8,37.8,29.75,SW,233,5.0,11.0,96,0.00,,,0.00,meteohub,2013-02-12 01:10:00,
2013-02-11 20:15:00,38.8,37.6,29.75,WSW,239,0.0,11.0,95,0.00,,,0.00,meteohub,2013-02-12 01:15:00,
2013-02-11 20:20:00,38.7,37.0,29.76,WNW,298,2.0,11.0,94,0.00,,,0.00,meteohub,2013-02-12 01:20:00,
2013-02-11 20:25:00,38.1,36.5,29.76,WSW,247,2.0,10.0,94,0.00,,,0.00,meteohub,2013-02-12 01:25:00,
2013-02-11 20:30:00,37.8,36.1,29.76,NW,326,1.0,6.0,94,0.00,,,0.00,meteohub,2013-02-12 01:30:00,
2013-02-11 20:35:00,37.8,36.5,29.75,NNW,342,2.0,6.0,95,0.00,,,0.00,meteohub,2013-02-12 01:35:00,
2013-02-11 20:40:00,37.9,36.9,29.76,NW,316,3.0,8.0,96,0.00,,,0.00,meteohub,2013-02-12 01:40:00,
2013-02-11 20:45:00,37.9,36.9,29.77,West,266,2.0,8.0,96,0.00,,,0.00,meteohub,2013-02-12 01:45:00,
2013-02-11 20:50:00,37.8,36.7,29.76,WNW,293,0.0,9.0,96,0.00,,,0.00,meteohub,2013-02-12 01:50:00,
2013-02-11 20:55:00,37.6,36.5,29.77,WNW,300,3.0,9.0,96,0.00,,,0.00,meteohub,2013-02-12 01:55:00,
2013-02-11 21:00:00,37.8,36.7,29.77,WNW,292,1.0,10.0,96,0.00,,,0.00,meteohub,2013-02-12 02:00:00,
2013-02-11 21:05:00,37.9,36.9,29.76,West,275,4.0,17.0,96,0.01,,,0.01,meteohub,2013-02-12 02:05:00,
2013-02-11 21:10:00,37.9,36.7,29.76,WNW,293,3.0,17.0,95,0.01,,,0.01,meteohub,2013-02-12 02:10:00,
2013-02-11 21:15:00,37.4,36.1,29.77,NW,310,5.0,17.0,95,0.01,,,0.01,meteohub,2013-02-12 02:15:00,
2013-02-11 21:20:00,36.9,35.6,29.77,WNW,286,9.0,13.0,95,0.02,,,0.02,meteohub,2013-02-12 02:20:00,
2013-02-11 21:25:00,36.3,35.1,29.77,WNW,294,3.0,14.0,95,0.02,,,0.02,meteohub,2013-02-12 02:25:00,
2013-02-11 21:30:00,36.0,34.7,29.77,NW,304,4.0,14.0,95,0.02,,,0.02,meteohub,2013-02-12 02:30:00,
2013-02-11 21:35:00,35.6,34.3,29.77,West,272,5.0,15.0,95,0.02,,,0.02,meteohub,2013-02-12 02:35:00,
2013-02-11 21:40:00,35.2,34.0,29.77,West,259,4.0,15.0,95,0.03,,,0.03,meteohub,2013-02-12 02:40:00,
2013-02-11 21:45:00,35.1,33.4,29.77,WNW,293,2.0,15.0,94,0.03,,,0.03,meteohub,2013-02-12 02:45:00,
2013-02-11 21:50:00,35.1,33.8,29.77,WSW,240,7.0,13.0,95,0.03,,,0.03,meteohub,2013-02-12 02:50:00,
2013-02-11 21:55:00,34.9,33.6,29.77,NW,313,1.0,12.0,95,0.03,,,0.03,meteohub,2013-02-12 02:55:00,
2013-02-11 22:00:00,34.9,33.6,29.77,WSW,249,5.0,8.0,95,0.03,,,0.03,meteohub,2013-02-12 03:00:00,
2013-02-11 22:05:00,34.9,33.6,29.76,NNW,329,7.0,8.0,95,0.02,,,0.03,meteohub,2013-02-12 03:05:00,
2013-02-11 22:10:00,34.9,33.6,29.76,WNW,297,5.0,8.0,95,0.02,,,0.03,meteohub,2013-02-12 03:10:00,
2013-02-11 22:15:00,34.9,33.6,29.76,WNW,293,1.0,8.0,95,0.01,,,0.03,meteohub,2013-02-12 03:15:00,
2013-02-11 22:20:00,34.7,33.1,29.75,NNW,345,3.0,13.0,94,0.02,,,0.04,meteohub,2013-02-12 03:20:00,
2013-02-11 22:25:00,34.5,32.7,29.75,NNW,340,7.0,13.0,93,0.02,,,0.04,meteohub,2013-02-12 03:25:00,
2013-02-11 22:30:00,34.3,32.5,29.75,SSE,157,1.0,13.0,93,0.02,,,0.04,meteohub,2013-02-12 03:30:00,
2013-02-11 22:35:00,34.0,32.2,29.74,WSW,242,11.0,19.0,93,0.01,,,0.04,meteohub,2013-02-12 03:35:00,
2013-02-11 22:41:00,33.6,32.0,29.74,NE,36,3.0,19.0,94,0.01,,,0.04,meteohub,2013-02-12 03:41:00,
2013-02-11 22:46:00,33.4,31.8,29.74,NNW,329,7.0,19.0,94,0.01,,,0.04,meteohub,2013-02-12 03:46:00,
2013-02-11 22:51:00,33.3,31.6,29.74,West,273,6.0,17.0,94,0.01,,,0.04,meteohub,2013-02-12 03:51:00,
2013-02-11 22:56:00,33.3,31.5,29.73,NW,304,4.0,17.0,93,0.01,,,0.04,meteohub,2013-02-12 03:56:00,
2013-02-11 23:01:00,33.3,31.1,29.73,NNW,328,3.0,16.0,92,0.01,,,0.04,meteohub,2013-02-12 04:01:00,
2013-02-11 23:06:00,33.4,31.1,29.74,NNW,330,5.0,14.0,91,0.01,,,0.04,meteohub,2013-02-12 04:06:00,
2013-02-11 23:11:00,33.6,31.3,29.73,West,272,7.0,14.0,91,0.01,,,0.04,meteohub,2013-02-12 04:11:00,
2013-02-11 23:16:00,33.6,30.9,29.73,West,267,1.0,14.0,90,0.01,,,0.04,meteohub,2013-02-12 04:16:00,
2013-02-11 23:21:00,33.6,30.9,29.74,WNW,302,2.0,12.0,90,0.00,,,0.04,meteohub,2013-02-12 04:21:00,
2013-02-11 23:26:00,33.4,30.7,29.73,WSW,252,2.0,12.0,90,0.00,,,0.04,meteohub,2013-02-12 04:26:00,
2013-02-11 23:31:00,33.4,30.7,29.74,WNW,284,4.0,12.0,90,0.00,,,0.04,meteohub,2013-02-12 04:31:00,
2013-02-11 23:36:00,33.3,30.6,29.74,SW,232,2.0,11.0,90,0.00,,,0.04,meteohub,2013-02-12 04:36:00,
2013-02-11 23:41:00,33.3,30.6,29.74,West,269,8.0,11.0,90,0.00,,,0.04,meteohub,2013-02-12 04:41:00,
2013-02-11 23:46:00,33.1,30.4,29.73,West,259,10.0,13.0,90,0.00,,,0.04,meteohub,2013-02-12 04:46:00,
2013-02-11 23:51:00,32.7,29.8,29.73,WNW,295,2.0,13.0,89,0.00,,,0.04,meteohub,2013-02-12 04:51:00,
2013-02-11 23:56:00,32.5,29.7,29.73,NNW,329,5.0,14.0,89,0.00,,,0.04,meteohub,2013-02-12 04:56:00,